Time;durP1;ratioP1;P1;durP2;ratioP2;P2;SDS_P1;SDS_P2;PMS_P1;PMS_P2;Temp;Humidity;BMP_temperature;BMP_pressure;BME280_temperature;BME280_humidity;BME280_pressure;Samples;Min_cycle;Max_cycle;Signal;HPM_P1;HPM_P2
2023/10/30 00:01:24;;;;;;;1999.90;999.90;;;10.40;99.90;;;;;;5037568;28;20045;-68
2023/10/30 00:03:50;;;;;;;1999.90;999.90;;;10.30;99.90;;;;;;5046530;28;20512;-69
2023/10/30 00:06:15;;;;;;;1999.90;999.90;;;10.30;99.90;;;;;;5040068;28;20040;-69
2023/10/30 00:08:41;;;;;;;1999.90;999.90;;;10.30;99.90;;;;;;5047814;28;20118;-69
2023/10/30 00:11:07;;;;;;;1999.90;999.90;;;10.20;99.90;;;;;;5058847;28;20043;-69
2023/10/30 00:13:32;;;;;;;1999.90;999.90;;;10.20;99.90;;;;;;5047370;28;20052;-69
2023/10/30 00:15:58;;;;;;;1999.90;999.90;;;10.20;99.90;;;;;;5047041;28;20064;-69
2023/10/30 00:18:24;;;;;;;1999.90;999.90;;;10.10;99.90;;;;;;5044074;28;20037;-68
2023/10/30 00:20:50;;;;;;;1999.90;999.90;;;10.10;99.90;;;;;;5045077;28;20497;-68
2023/10/30 00:23:15;;;;;;;1999.90;999.90;;;10.10;99.90;;;;;;5020265;28;20403;-69
2023/10/30 00:25:41;;;;;;;1999.90;999.90;;;10.10;99.90;;;;;;5059063;28;20463;-69
2023/10/30 00:28:07;;;;;;;1999.90;999.90;;;10.00;99.90;;;;;;5043078;28;20463;-69
2023/10/30 00:30:32;;;;;;;1999.90;999.90;;;10.10;99.90;;;;;;5047178;28;20120;-69
2023/10/30 00:32:58;;;;;;;1999.90;999.90;;;10.00;99.90;;;;;;5042922;28;20076;-69
2023/10/30 00:35:24;;;;;;;1999.90;999.90;;;10.00;99.90;;;;;;5040197;28;20041;-68
2023/10/30 00:37:50;;;;;;;1999.90;999.90;;;10.00;99.90;;;;;;5046730;28;20044;-69
2023/10/30 00:40:16;;;;;;;1999.90;999.90;;;10.00;99.90;;;;;;5030110;28;20501;-69
2023/10/30 00:42:41;;;;;;;1999.90;999.90;;;9.90;99.90;;;;;;5049191;28;20056;-69
2023/10/30 00:45:08;;;;;;;1999.90;999.90;;;9.90;99.90;;;;;;5022316;28;20032;-69
2023/10/30 00:47:38;;;;;;;1999.90;999.90;;;9.90;99.90;;;;;;5020626;28;20151;-69
2023/10/30 00:50:05;;;;;;;1999.90;999.90;;;9.80;99.90;;;;;;5045402;28;20040;-69
2023/10/30 00:52:30;;;;;;;1999.90;999.90;;;9.80;99.90;;;;;;5054715;28;20501;-69
2023/10/30 00:54:56;;;;;;;1999.90;999.90;;;9.70;99.90;;;;;;5043086;28;20052;-69
2023/10/30 00:57:22;;;;;;;1999.90;999.90;;;9.70;99.90;;;;;;5036163;28;20522;-69
2023/10/30 00:59:48;;;;;;;1999.90;999.90;;;9.70;99.90;;;;;;5029573;28;20044;-69
2023/10/30 01:02:14;;;;;;;1999.90;999.90;;;9.70;99.90;;;;;;5041357;28;20421;-69
2023/10/30 01:04:39;;;;;;;1999.90;999.90;;;9.60;99.90;;;;;;5034395;28;20037;-69
2023/10/30 01:07:05;;;;;;;1999.90;999.90;;;9.60;99.90;;;;;;5044034;28;20033;-69
2023/10/30 01:09:31;;;;;;;1999.90;999.90;;;9.60;99.90;;;;;;5045960;28;20064;-69
2023/10/30 01:11:56;;;;;;;1999.90;999.90;;;9.50;99.90;;;;;;5046529;28;20497;-69
2023/10/30 01:14:22;;;;;;;1999.90;999.90;;;9.60;99.90;;;;;;5040021;28;20616;-69
2023/10/30 01:16:49;;;;;;;1999.90;999.90;;;9.50;99.90;;;;;;5054404;28;20047;-69
2023/10/30 01:19:15;;;;;;;1999.90;999.90;;;9.50;99.90;;;;;;5043101;28;20047;-68
2023/10/30 01:21:41;;;;;;;1999.90;999.90;;;9.50;99.90;;;;;;5034897;28;20049;-69
2023/10/30 01:24:08;;;;;;;1999.90;999.90;;;9.60;99.90;;;;;;5033624;28;20091;-68
2023/10/30 01:26:34;;;;;;;1999.90;999.90;;;9.60;99.90;;;;;;5047095;28;20048;-69
2023/10/30 01:29:00;;;;;;;1999.90;999.90;;;9.60;99.90;;;;;;5044576;28;20465;-68
2023/10/30 01:31:27;;;;;;;1999.90;999.90;;;9.60;99.90;;;;;;5028767;28;20493;-69
2023/10/30 01:33:54;;;;;;;1999.90;999.90;;;9.60;99.90;;;;;;5045737;28;20051;-69
2023/10/30 01:36:19;;;;;;;1999.90;999.90;;;9.50;99.90;;;;;;5026250;28;20091;-69
2023/10/30 01:38:45;;;;;;;1999.90;999.90;;;9.60;99.90;;;;;;5029395;28;20469;-69
2023/10/30 01:41:11;;;;;;;1999.90;999.90;;;9.60;99.90;;;;;;5002532;28;1196189;-70
2023/10/30 01:43:36;;;;;;;1999.90;999.90;;;9.60;99.90;;;;;;5038737;28;20134;-69
2023/10/30 01:46:02;;;;;;;1999.90;999.90;;;9.50;99.90;;;;;;5046617;28;20175;-69
2023/10/30 01:48:31;;;;;;;1999.90;999.90;;;9.50;99.90;;;;;;5044499;28;20044;-69
2023/10/30 01:50:59;;;;;;;1999.90;999.90;;;9.50;99.90;;;;;;5044057;28;20044;-68
2023/10/30 01:53:26;;;;;;;1999.90;999.90;;;9.50;99.90;;;;;;5055318;28;20041;-69
2023/10/30 01:55:53;;;;;;;1999.90;999.90;;;9.60;99.90;;;;;;5041813;28;20491;-69
2023/10/30 01:58:19;;;;;;;1999.90;999.90;;;9.50;99.90;;;;;;5035492;28;20049;-69
2023/10/30 02:00:48;;;;;;;1999.90;999.90;;;9.50;99.90;;;;;;5056927;28;20410;-69
2023/10/30 02:03:13;;;;;;;1999.90;999.90;;;9.60;99.90;;;;;;5037032;28;20029;-70
2023/10/30 02:05:40;;;;;;;1999.90;999.90;;;9.60;99.90;;;;;;5028706;28;20037;-69
2023/10/30 02:08:07;;;;;;;1999.90;999.90;;;9.50;99.90;;;;;;5038270;28;20037;-69
2023/10/30 02:10:32;;;;;;;1999.90;999.90;;;9.60;99.90;;;;;;5040692;28;20501;-69
2023/10/30 02:12:58;;;;;;;1999.90;999.90;;;9.60;99.90;;;;;;5035131;28;20047;-69
2023/10/30 02:15:24;;;;;;;1999.90;999.90;;;9.60;99.90;;;;;;5062997;28;20032;-70
2023/10/30 02:17:49;;;;;;;1999.90;999.90;;;9.50;99.90;;;;;;5059621;28;20036;-69
2023/10/30 02:20:15;;;;;;;1999.90;999.90;;;9.50;99.90;;;;;;5046012;28;20064;-69
2023/10/30 02:22:41;;;;;;;1999.90;999.90;;;9.50;99.90;;;;;;5039752;28;20124;-69
2023/10/30 02:25:07;;;;;;;1999.90;999.90;;;9.40;99.90;;;;;;5044919;28;20069;-69
2023/10/30 02:27:33;;;;;;;1999.90;999.90;;;9.40;99.90;;;;;;5042026;28;20046;-69
2023/10/30 02:29:59;;;;;;;1999.90;999.90;;;9.40;99.90;;;;;;5041538;28;20033;-69
2023/10/30 02:32:24;;;;;;;1999.90;999.90;;;9.40;99.90;;;;;;5027455;28;20053;-69
2023/10/30 02:34:50;;;;;;;1999.90;999.90;;;9.40;99.90;;;;;;5055349;28;20067;-70
2023/10/30 02:37:15;;;;;;;1999.90;999.90;;;9.40;99.90;;;;;;5042424;28;20604;-69
2023/10/30 02:39:41;;;;;;;1999.90;999.90;;;9.40;99.90;;;;;;5039527;28;21506;-69
2023/10/30 02:42:08;;;;;;;1999.90;999.90;;;9.40;99.90;;;;;;5045948;28;20045;-69
2023/10/30 02:44:34;;;;;;;1999.90;999.90;;;9.40;99.90;;;;;;5029206;28;20053;-69
2023/10/30 02:46:59;;;;;;;1999.90;999.90;;;9.40;99.90;;;;;;5043544;28;20050;-69
2023/10/30 02:49:25;;;;;;;1999.90;999.90;;;9.40;99.90;;;;;;5045702;28;20502;-69
2023/10/30 02:51:51;;;;;;;1999.90;999.90;;;9.40;99.90;;;;;;5049498;28;20125;-69
2023/10/30 02:54:17;;;;;;;1999.90;999.90;;;9.40;99.90;;;;;;5047723;28;20041;-69
2023/10/30 02:56:42;;;;;;;1999.90;999.90;;;9.50;99.90;;;;;;5044858;28;20084;-69
2023/10/30 02:59:08;;;;;;;1999.90;999.90;;;9.50;99.90;;;;;;5048874;28;20068;-69
2023/10/30 03:01:34;;;;;;;1999.90;999.90;;;9.50;99.90;;;;;;5049182;28;20044;-69
2023/10/30 03:04:03;;;;;;;1999.90;999.90;;;9.60;99.90;;;;;;5032041;28;20167;-69
2023/10/30 03:06:28;;;;;;;1999.90;999.90;;;9.60;99.90;;;;;;5038398;28;20106;-69
2023/10/30 03:08:54;;;;;;;1999.90;999.90;;;9.60;99.90;;;;;;5061557;28;20041;-69
2023/10/30 03:11:20;;;;;;;1999.90;999.90;;;9.60;99.90;;;;;;5038081;28;20053;-69
2023/10/30 03:13:46;;;;;;;1999.90;999.90;;;9.70;99.90;;;;;;5046956;28;20114;-69
2023/10/30 03:16:11;;;;;;;1999.90;999.90;;;9.70;99.90;;;;;;5033265;28;20045;-69
2023/10/30 03:18:38;;;;;;;1999.90;999.90;;;9.70;99.90;;;;;;5060450;28;20047;-69
2023/10/30 03:21:04;;;;;;;1999.90;999.90;;;9.70;99.90;;;;;;5039060;28;20048;-69
2023/10/30 03:23:29;;;;;;;1999.90;999.90;;;9.70;99.90;;;;;;5047945;28;20037;-69
2023/10/30 03:25:55;;;;;;;1999.90;999.90;;;9.70;99.90;;;;;;5049142;28;20094;-69
2023/10/30 03:28:21;;;;;;;1999.90;999.90;;;9.60;99.90;;;;;;5048605;28;20036;-69
2023/10/30 03:30:46;;;;;;;1999.90;999.90;;;9.60;99.90;;;;;;5045173;28;20051;-69
2023/10/30 03:33:12;;;;;;;1999.90;999.90;;;9.60;99.90;;;;;;5050447;28;20048;-69
2023/10/30 03:35:39;;;;;;;1999.90;999.90;;;9.60;99.90;;;;;;5044776;28;20049;-69
2023/10/30 03:38:05;;;;;;;1999.90;999.90;;;9.60;99.90;;;;;;5043607;28;20037;-69
2023/10/30 03:40:31;;;;;;;1999.90;999.90;;;9.60;99.90;;;;;;5050794;28;20522;-69
2023/10/30 03:42:57;;;;;;;1999.90;999.90;;;9.60;99.90;;;;;;5030194;28;20049;-69
2023/10/30 03:45:22;;;;;;;1999.90;999.90;;;9.50;99.90;;;;;;5028547;28;20044;-69
2023/10/30 03:47:48;;;;;;;1999.90;999.90;;;9.50;99.90;;;;;;5046577;28;20037;-69
2023/10/30 03:50:14;;;;;;;1999.90;999.90;;;9.50;99.90;;;;;;5050779;28;20059;-69
2023/10/30 03:52:44;;;;;;;1999.90;999.90;;;9.50;99.90;;;;;;5046421;28;20051;-69
2023/10/30 03:55:10;;;;;;;1999.90;999.90;;;9.50;99.90;;;;;;5043473;28;20045;-69
2023/10/30 03:57:35;;;;;;;1999.90;999.90;;;9.50;99.90;;;;;;5040659;28;20041;-68
2023/10/30 04:00:03;;;;;;;1999.90;999.90;;;9.50;99.90;;;;;;5059611;28;20434;-69
2023/10/30 04:02:29;;;;;;;1999.90;999.90;;;9.50;99.90;;;;;;5036883;28;20045;-69
2023/10/30 04:04:55;;;;;;;1999.90;999.90;;;9.50;99.90;;;;;;5049993;28;20060;-69
2023/10/30 04:07:20;;;;;;;1999.90;999.90;;;9.50;99.90;;;;;;5047832;28;20032;-69
2023/10/30 04:09:46;;;;;;;1999.90;999.90;;;9.50;99.90;;;;;;5042842;28;20046;-69
2023/10/30 04:12:12;;;;;;;1999.90;999.90;;;9.50;99.90;;;;;;5036142;28;20051;-69
2023/10/30 04:14:38;;;;;;;1999.90;999.90;;;9.50;99.90;;;;;;5040732;28;20048;-69
2023/10/30 04:17:04;;;;;;;1999.90;999.90;;;9.50;99.90;;;;;;5033122;28;20045;-69
2023/10/30 04:19:30;;;;;;;1999.90;999.90;;;9.50;99.90;;;;;;5029662;28;20076;-69
2023/10/30 04:21:55;;;;;;;1999.90;999.90;;;9.50;99.90;;;;;;5029925;28;20075;-69
2023/10/30 04:24:22;;;;;;;1999.90;999.90;;;9.50;99.90;;;;;;5028693;28;20033;-69
2023/10/30 04:26:47;;;;;;;1999.90;999.90;;;9.50;99.90;;;;;;5037744;28;20046;-69
2023/10/30 04:29:13;;;;;;;1999.90;999.90;;;9.50;99.90;;;;;;5046945;28;20025;-69
2023/10/30 04:31:39;;;;;;;1999.90;999.90;;;9.50;99.90;;;;;;5041021;28;20103;-69
2023/10/30 04:34:04;;;;;;;1999.90;999.90;;;9.50;99.90;;;;;;5028101;28;20045;-69
2023/10/30 04:36:30;;;;;;;1999.90;999.90;;;9.60;99.90;;;;;;5030670;28;20056;-69
2023/10/30 04:38:55;;;;;;;1999.90;999.90;;;9.60;99.90;;;;;;5050574;28;20082;-70
2023/10/30 04:41:21;;;;;;;1999.90;999.90;;;9.60;99.90;;;;;;5052202;28;20540;-69
2023/10/30 04:43:46;;;;;;;1999.90;999.90;;;9.60;99.90;;;;;;5027662;28;20036;-69
2023/10/30 04:46:12;;;;;;;1999.90;999.90;;;9.50;99.90;;;;;;5054368;28;20193;-69
2023/10/30 04:48:37;;;;;;;1999.90;999.90;;;9.60;99.90;;;;;;5046998;28;20041;-69
2023/10/30 04:51:03;;;;;;;1999.90;999.90;;;9.50;99.90;;;;;;5045207;28;20389;-66
2023/10/30 04:53:29;;;;;;;1999.90;999.90;;;9.60;99.90;;;;;;5062019;28;20041;-67
2023/10/30 04:55:57;;;;;;;1999.90;999.90;;;9.50;99.90;;;;;;5042746;28;20075;-66
2023/10/30 04:58:22;;;;;;;1999.90;999.90;;;9.60;99.90;;;;;;5035099;28;20402;-67
2023/10/30 05:00:48;;;;;;;1999.90;999.90;;;9.60;99.90;;;;;;5052341;28;20049;-67
2023/10/30 05:03:14;;;;;;;1999.90;999.90;;;9.60;99.90;;;;;;5029083;28;20041;-66
2023/10/30 05:05:39;;;;;;;1999.90;999.90;;;9.60;99.90;;;;;;5045610;28;20041;-66
2023/10/30 05:08:05;;;;;;;1999.90;999.90;;;9.50;99.90;;;;;;5052318;28;20052;-66
2023/10/30 05:10:31;;;;;;;1999.90;999.90;;;9.50;99.90;;;;;;5050177;28;20835;-67
2023/10/30 05:12:57;;;;;;;1999.90;999.90;;;9.40;99.90;;;;;;5040878;28;20402;-66
2023/10/30 05:15:23;;;;;;;1999.90;999.90;;;9.40;99.90;;;;;;5043251;28;20049;-66
2023/10/30 05:17:49;;;;;;;1999.90;999.90;;;9.40;99.90;;;;;;5029869;28;20104;-67
2023/10/30 05:20:15;;;;;;;1999.90;999.90;;;9.30;99.90;;;;;;5037878;28;20099;-66
2023/10/30 05:22:44;;;;;;;1999.90;999.90;;;9.30;99.90;;;;;;5044006;28;20076;-66
2023/10/30 05:25:10;;;;;;;1999.90;999.90;;;9.30;99.90;;;;;;5054684;28;20151;-66
2023/10/30 05:27:35;;;;;;;1999.90;999.90;;;9.30;99.90;;;;;;5045284;28;20440;-66
2023/10/30 05:30:02;;;;;;;1999.90;999.90;;;9.30;99.90;;;;;;5045896;28;20041;-66
2023/10/30 05:32:28;;;;;;;1999.90;999.90;;;9.30;99.90;;;;;;5048754;28;20045;-66
2023/10/30 05:34:54;;;;;;;1999.90;999.90;;;9.20;99.90;;;;;;5026065;28;20041;-67
2023/10/30 05:37:20;;;;;;;1999.90;999.90;;;9.20;99.90;;;;;;5055327;28;20094;-66
2023/10/30 05:39:46;;;;;;;1999.90;999.90;;;9.20;99.90;;;;;;5028683;28;20060;-66
2023/10/30 05:42:12;;;;;;;1999.90;999.90;;;9.20;99.90;;;;;;5046484;28;20059;-66
2023/10/30 05:44:37;;;;;;;1999.90;999.90;;;9.20;99.90;;;;;;5028274;28;20669;-66
2023/10/30 05:47:03;;;;;;;1999.90;999.90;;;9.10;99.90;;;;;;5043364;28;20029;-66
2023/10/30 05:49:29;;;;;;;1999.90;999.90;;;9.20;99.90;;;;;;5049475;28;20465;-66
2023/10/30 05:51:55;;;;;;;1999.90;999.90;;;9.10;99.90;;;;;;5044912;28;20051;-67
2023/10/30 05:54:22;;;;;;;1999.90;999.90;;;9.10;99.90;;;;;;5047790;28;20259;-66
2023/10/30 05:56:48;;;;;;;1999.90;999.90;;;9.10;99.90;;;;;;5053029;28;20504;-66
2023/10/30 05:59:14;;;;;;;1999.90;999.90;;;9.10;99.90;;;;;;5044848;28;20072;-66
2023/10/30 06:01:39;;;;;;;1999.90;999.90;;;9.10;99.90;;;;;;5043349;28;20080;-67
2023/10/30 06:04:05;;;;;;;1999.90;999.90;;;9.10;99.90;;;;;;5035998;28;20037;-66
2023/10/30 06:06:30;;;;;;;1999.90;999.90;;;9.00;99.90;;;;;;5045727;28;20044;-67
2023/10/30 06:08:56;;;;;;;1999.90;999.90;;;9.00;99.90;;;;;;5045062;28;20540;-66
2023/10/30 06:11:22;;;;;;;1999.90;999.90;;;9.00;99.90;;;;;;5026877;28;20512;-67
2023/10/30 06:13:48;;;;;;;1999.90;999.90;;;8.90;99.90;;;;;;5035055;28;20437;-67
2023/10/30 06:16:20;;;;;;;1999.90;999.90;;;8.90;99.90;;;;;;5039829;28;20036;-66
2023/10/30 06:18:46;;;;;;;1999.90;999.90;;;8.90;99.90;;;;;;5062329;28;20084;-67
2023/10/30 06:21:18;;;;;;;1999.90;999.90;;;8.90;99.90;;;;;;5033615;28;20080;-66
2023/10/30 06:23:44;;;;;;;1999.90;999.90;;;8.90;99.90;;;;;;5041282;28;20128;-66
2023/10/30 06:26:12;;;;;;;1999.90;999.90;;;8.80;99.90;;;;;;5043089;28;20389;-69
2023/10/30 06:28:38;;;;;;;1999.90;999.90;;;8.90;99.90;;;;;;5039666;28;20083;-69
2023/10/30 06:31:12;;;;;;;1999.90;999.90;;;8.90;99.90;;;;;;5063042;28;20159;-70
2023/10/30 06:33:37;;;;;;;1999.90;999.90;;;8.90;99.90;;;;;;5047832;28;20049;-69
2023/10/30 06:36:03;;;;;;;1999.90;999.90;;;8.90;99.90;;;;;;5040030;28;20398;-69
2023/10/30 06:38:29;;;;;;;1999.90;999.90;;;9.00;99.90;;;;;;5045498;28;20033;-69
2023/10/30 06:40:55;;;;;;;1999.90;999.90;;;9.00;99.90;;;;;;5045719;28;20512;-69
2023/10/30 06:43:21;;;;;;;1999.90;999.90;;;9.00;99.90;;;;;;5047275;28;20500;-69
2023/10/30 06:45:47;;;;;;;1999.90;999.90;;;9.00;99.90;;;;;;5049686;28;20068;-69
2023/10/30 06:48:12;;;;;;;1999.90;999.90;;;9.00;99.90;;;;;;5064486;28;20088;-69
2023/10/30 06:50:38;;;;;;;1999.90;999.90;;;9.10;99.90;;;;;;5050428;28;20128;-69
2023/10/30 06:53:03;;;;;;;1999.90;999.90;;;9.20;99.90;;;;;;5029644;28;20408;-69
2023/10/30 06:55:31;;;;;;;1999.90;999.90;;;9.20;99.90;;;;;;5046903;28;20080;-69
2023/10/30 06:57:56;;;;;;;1999.90;999.90;;;9.20;99.90;;;;;;5046715;28;20455;-69
2023/10/30 07:00:23;;;;;;;1999.90;999.90;;;9.30;99.90;;;;;;5051251;28;20047;-69
2023/10/30 07:02:49;;;;;;;1999.90;999.90;;;9.40;99.90;;;;;;5023841;28;20037;-69
2023/10/30 07:05:15;;;;;;;1999.90;999.90;;;9.50;99.90;;;;;;5036480;28;20453;-68
2023/10/30 07:07:41;;;;;;;1999.90;999.90;;;9.60;99.90;;;;;;5043307;28;20041;-69
2023/10/30 07:10:07;;;;;;;1999.90;999.90;;;9.60;99.90;;;;;;5048167;28;20044;-69
2023/10/30 07:12:33;;;;;;;1999.90;999.90;;;9.70;99.90;;;;;;5033019;28;20186;-69
2023/10/30 07:14:58;;;;;;;1999.90;999.90;;;9.80;99.90;;;;;;5026110;28;20524;-69
2023/10/30 07:17:24;;;;;;;1999.90;999.90;;;9.80;99.90;;;;;;5037248;28;20036;-69
2023/10/30 07:19:50;;;;;;;1999.90;999.90;;;9.90;99.90;;;;;;5032077;28;20072;-69
2023/10/30 07:22:16;;;;;;;1999.90;999.90;;;9.90;99.90;;;;;;5032480;28;20033;-69
2023/10/30 07:24:42;;;;;;;1999.90;999.90;;;10.00;99.90;;;;;;5032097;28;20037;-69
2023/10/30 07:27:07;;;;;;;1999.90;999.90;;;10.10;99.90;;;;;;5049008;28;20041;-69
2023/10/30 07:29:33;;;;;;;1999.90;999.90;;;10.20;99.90;;;;;;5047804;28;20080;-68
2023/10/30 07:31:58;;;;;;;1999.90;999.90;;;10.30;99.90;;;;;;5039695;28;20187;-69
2023/10/30 07:34:24;;;;;;;1999.90;999.90;;;10.40;99.90;;;;;;5041958;28;20482;-69
2023/10/30 07:36:50;;;;;;;1999.90;999.90;;;10.50;99.90;;;;;;5043904;28;20054;-69
2023/10/30 07:39:16;;;;;;;1999.90;999.90;;;10.50;99.90;;;;;;5044985;28;20049;-69
2023/10/30 07:41:41;;;;;;;1999.90;999.90;;;10.60;99.90;;;;;;5021840;28;20395;-68
2023/10/30 07:44:08;;;;;;;1999.90;999.90;;;10.60;99.90;;;;;;5044835;28;20032;-69
2023/10/30 07:46:34;;;;;;;1999.90;999.90;;;10.70;99.90;;;;;;5047054;28;20447;-69
2023/10/30 07:49:08;;;;;;;1999.90;999.90;;;10.80;99.90;;;;;;5030468;28;20032;-69
2023/10/30 07:51:34;;;;;;;1999.90;999.90;;;10.90;99.90;;;;;;5055535;28;20488;-69
2023/10/30 07:54:00;;;;;;;1999.90;999.90;;;11.00;99.90;;;;;;5045037;28;20047;-69
2023/10/30 07:56:25;;;;;;;1999.90;999.90;;;11.10;99.90;;;;;;5030170;28;20558;-70
2023/10/30 07:58:51;;;;;;;1999.90;999.90;;;11.20;99.90;;;;;;5031324;28;20529;-69
2023/10/30 08:01:20;;;;;;;1999.90;999.90;;;11.20;99.90;;;;;;5042494;28;20068;-69
2023/10/30 08:03:46;;;;;;;1999.90;999.90;;;11.40;99.90;;;;;;5047034;28;20126;-69
2023/10/30 08:06:12;;;;;;;1999.90;999.90;;;11.40;99.90;;;;;;5031251;28;20421;-69
2023/10/30 08:08:38;;;;;;;1999.90;999.90;;;11.50;99.90;;;;;;5048508;28;20045;-69
2023/10/30 08:11:04;;;;;;;1999.90;999.90;;;11.60;99.90;;;;;;5048460;28;20070;-69
2023/10/30 08:13:30;;;;;;;1999.90;999.90;;;11.70;99.90;;;;;;5048153;28;20496;-69
2023/10/30 08:15:55;;;;;;;1999.90;999.90;;;11.70;99.90;;;;;;5047651;28;20044;-69
2023/10/30 08:18:21;;;;;;;1999.90;999.90;;;11.70;99.90;;;;;;5048397;28;20055;-69
2023/10/30 08:20:47;;;;;;;1999.90;999.90;;;11.70;99.90;;;;;;5028778;28;20060;-69
2023/10/30 08:23:12;;;;;;;1999.90;999.90;;;11.80;99.90;;;;;;5063452;28;20080;-69
2023/10/30 08:25:38;;;;;;;1999.90;999.90;;;11.80;99.90;;;;;;5031213;28;20056;-69
2023/10/30 08:28:04;;;;;;;1999.90;999.90;;;11.80;99.90;;;;;;5048074;28;20751;-68
2023/10/30 08:30:29;;;;;;;1999.90;999.90;;;11.90;99.90;;;;;;5045630;28;20056;-69
2023/10/30 08:32:56;;;;;;;1999.90;999.90;;;12.00;99.90;;;;;;5047913;28;20072;-69
2023/10/30 08:35:22;;;;;;;1999.90;999.90;;;12.10;99.90;;;;;;5061531;28;20092;-68
2023/10/30 08:37:48;;;;;;;1999.90;999.90;;;12.30;99.90;;;;;;5046827;28;20079;-69
2023/10/30 08:40:13;;;;;;;1999.90;999.90;;;12.50;99.90;;;;;;5047848;28;20505;-68
2023/10/30 08:42:39;;;;;;;1999.90;999.90;;;12.70;99.90;;;;;;5034132;28;20049;-69
2023/10/30 08:45:07;;;;;;;1999.90;999.90;;;12.80;99.90;;;;;;5030078;28;20076;-69
2023/10/30 08:47:32;;;;;;;1999.90;999.90;;;12.90;99.90;;;;;;5047586;28;20067;-69
2023/10/30 08:49:58;;;;;;;1999.90;999.90;;;13.00;99.90;;;;;;5031422;28;20036;-68
2023/10/30 08:52:24;;;;;;;1999.90;999.90;;;13.00;99.90;;;;;;5031100;28;20072;-69
2023/10/30 08:54:49;;;;;;;1999.90;999.90;;;13.10;99.90;;;;;;5046349;28;20411;-69
2023/10/30 08:57:19;;;;;;;1999.90;999.90;;;13.20;99.90;;;;;;5052608;28;20076;-69
2023/10/30 08:59:45;;;;;;;1999.90;999.90;;;13.30;99.90;;;;;;5012017;28;20052;-69
2023/10/30 09:02:11;;;;;;;1999.90;999.90;;;13.30;99.90;;;;;;5047923;28;20244;-69
2023/10/30 09:04:36;;;;;;;1999.90;999.90;;;13.40;99.90;;;;;;5024954;28;20448;-68
2023/10/30 09:07:03;;;;;;;1999.90;999.90;;;13.50;99.90;;;;;;5055254;28;20388;-69
2023/10/30 09:09:28;;;;;;;1999.90;999.90;;;13.60;99.90;;;;;;5041049;28;20040;-69
2023/10/30 09:11:54;;;;;;;1999.90;999.90;;;13.70;99.90;;;;;;5052498;28;20060;-69
2023/10/30 09:14:20;;;;;;;1999.90;999.90;;;13.70;99.90;;;;;;5029053;28;20513;-69
2023/10/30 09:16:45;;;;;;;1999.90;999.90;;;13.70;99.90;;;;;;5040522;28;20049;-69
2023/10/30 09:19:11;;;;;;;1999.90;999.90;;;13.60;99.90;;;;;;5054577;28;20056;-69
2023/10/30 09:21:36;;;;;;;1999.90;999.90;;;13.60;99.90;;;;;;5027578;28;20489;-69
2023/10/30 09:24:02;;;;;;;1999.90;999.90;;;13.70;99.90;;;;;;5028285;28;20033;-69
2023/10/30 09:26:28;;;;;;;1999.90;999.90;;;13.70;99.90;;;;;;5045788;28;20052;-69
2023/10/30 09:28:54;;;;;;;1999.90;999.90;;;13.70;99.90;;;;;;5046894;28;20187;-69
2023/10/30 09:31:20;;;;;;;1999.90;999.90;;;13.60;99.90;;;;;;5048887;28;20036;-69
2023/10/30 09:33:47;;;;;;;1999.90;999.90;;;13.50;99.90;;;;;;5026559;28;20059;-69
2023/10/30 09:36:13;;;;;;;1999.90;999.90;;;13.50;99.90;;;;;;5038145;28;20048;-69
2023/10/30 09:38:38;;;;;;;1999.90;999.90;;;13.50;99.90;;;;;;5048513;28;20047;-69
2023/10/30 09:41:05;;;;;;;1999.90;999.90;;;13.40;99.90;;;;;;5046246;28;20539;-69
2023/10/30 09:43:33;;;;;;;1999.90;999.90;;;13.50;99.90;;;;;;5047382;28;20057;-69
2023/10/30 09:46:01;;;;;;;1999.90;999.90;;;13.50;99.90;;;;;;5046682;28;20370;-68
2023/10/30 09:48:29;;;;;;;1999.90;999.90;;;13.70;99.90;;;;;;5025869;28;20049;-69
2023/10/30 09:50:56;;;;;;;1999.90;999.90;;;13.90;99.90;;;;;;5049086;28;20040;-69
2023/10/30 09:53:24;;;;;;;1999.90;999.90;;;14.20;99.90;;;;;;5044506;28;20044;-69
2023/10/30 09:55:53;;;;;;;1999.90;999.90;;;14.40;99.90;;;;;;5040962;28;20144;-69
2023/10/30 09:58:24;;;;;;;1999.90;999.90;;;14.50;99.90;;;;;;5036490;28;20039;-69
2023/10/30 10:00:50;;;;;;;1999.90;999.90;;;14.70;99.90;;;;;;5047780;28;20044;-68
2023/10/30 10:03:15;;;;;;;1999.90;999.90;;;14.80;99.90;;;;;;5048740;28;20033;-69
2023/10/30 10:05:41;;;;;;;1999.90;999.90;;;14.90;99.90;;;;;;5046965;28;20061;-69
2023/10/30 10:08:10;;;;;;;1999.90;999.90;;;15.10;99.90;;;;;;5048636;28;20032;-69
2023/10/30 10:10:55;;;;;;;1999.90;999.90;;;15.20;99.90;;;;;;5040724;28;20037;-69
2023/10/30 10:13:21;;;;;;;1999.90;999.90;;;15.30;99.90;;;;;;5046366;28;20784;-68
2023/10/30 10:15:48;;;;;;;1999.90;999.90;;;15.40;99.90;;;;;;5045941;28;20045;-69
2023/10/30 10:18:23;;;;;;;1999.90;999.90;;;15.40;99.90;;;;;;5050775;28;20083;-69
2023/10/30 10:21:00;;;;;;;1999.90;999.90;;;15.60;99.90;;;;;;5049371;28;20029;-69
2023/10/30 10:23:30;;;;;;;1999.90;999.90;;;15.70;99.90;;;;;;5051989;28;20071;-69
2023/10/30 10:25:56;;;;;;;1999.90;999.90;;;15.80;99.90;;;;;;5036439;28;20439;-69
2023/10/30 10:28:23;;;;;;;1999.90;999.90;;;15.80;99.90;;;;;;5038253;28;20048;-69
2023/10/30 10:30:49;;;;;;;211.60;202.00;;;15.80;99.90;;;;;;5045331;28;20116;-69
2023/10/30 10:33:15;;;;;;;196.63;187.63;;;15.70;99.90;;;;;;5047892;28;20584;-69
2023/10/30 10:35:41;;;;;;;225.82;215.50;;;15.50;99.90;;;;;;5038149;28;20053;-69
2023/10/30 10:38:13;;;;;;;119.35;113.68;;;15.40;99.90;;;;;;5031461;28;20428;-69
2023/10/30 10:40:39;;;;;;;651.90;394.98;;;15.40;99.90;;;;;;5033290;28;20555;-69
2023/10/30 10:43:07;;;;;;;1999.90;999.90;;;15.20;99.90;;;;;;5052876;28;20500;-69
2023/10/30 10:45:32;;;;;;;1999.90;999.90;;;15.00;99.90;;;;;;5046986;28;20048;-69
2023/10/30 10:47:58;;;;;;;659.33;402.05;;;15.00;99.90;;;;;;5049846;28;20102;-70
2023/10/30 10:50:24;;;;;;;1999.90;999.90;;;15.00;99.90;;;;;;5032651;28;20512;-69
2023/10/30 10:52:53;;;;;;;1999.90;999.90;;;15.10;99.90;;;;;;5047466;28;20163;-69
2023/10/30 10:55:26;;;;;;;1999.90;999.90;;;15.10;99.90;;;;;;5049748;28;20079;-70
2023/10/30 10:58:14;;;;;;;307.50;292.92;;;15.10;99.90;;;;;;5048621;28;20044;-69
2023/10/30 11:00:47;;;;;;;1999.90;999.90;;;15.10;99.90;;;;;;5049270;28;20511;-69
2023/10/30 11:03:13;;;;;;;357.38;339.92;;;15.20;99.90;;;;;;5052293;28;20083;-69
2023/10/30 11:05:39;;;;;;;740.70;479.63;;;15.10;99.90;;;;;;5049098;28;20076;-69
2023/10/30 11:08:14;;;;;;;1999.90;999.90;;;15.00;99.90;;;;;;5026759;28;20047;-69
2023/10/30 11:10:46;;;;;;;1999.90;999.90;;;15.00;99.90;;;;;;5049584;28;20043;-69
2023/10/30 11:13:24;;;;;;;1175.30;666.60;;;15.10;99.90;;;;;;5042064;28;20049;-69
2023/10/30 11:16:00;;;;;;;780.58;516.90;;;15.10;99.90;;;;;;5029433;28;20036;-69
2023/10/30 11:18:27;;;;;;;746.88;485.30;;;15.00;99.90;;;;;;5046502;28;20057;-69
2023/10/30 11:21:12;;;;;;;1183.80;674.83;;;14.90;99.90;;;;;;5044575;28;20116;-69
2023/10/30 11:23:44;;;;;;;296.20;282.63;;;14.80;99.90;;;;;;5045726;28;20276;-69
2023/10/30 11:26:39;;;;;;;1999.90;999.90;;;14.80;99.90;;;;;;5035722;28;20393;-69
2023/10/30 11:29:10;;;;;;;1999.90;999.90;;;14.90;99.90;;;;;;5028707;28;20041;-69
2023/10/30 11:31:53;;;;;;;1636.90;879.75;;;15.20;99.90;;;;;;5051751;28;20044;-69
2023/10/30 11:34:25;;;;;;;859.63;591.10;;;15.50;99.90;;;;;;5049779;28;20048;-69
2023/10/30 11:36:51;;;;;;;461.17;438.40;;;15.80;99.90;;;;;;5042715;28;20045;-69
2023/10/30 11:39:20;;;;;;;396.30;376.90;;;15.70;99.90;;;;;;5043917;28;20375;-69
2023/10/30 11:41:53;;;;;;;359.55;341.75;;;15.50;99.90;;;;;;5046852;28;20088;-69
2023/10/30 11:44:19;;;;;;;421.92;401.60;;;15.30;99.90;;;;;;5024555;28;20037;-69
2023/10/30 11:46:48;;;;;;;807.35;542.35;;;15.10;99.90;;;;;;5043455;28;20116;-68
2023/10/30 11:49:15;;;;;;;430.88;409.25;;;14.90;99.90;;;;;;5020260;28;20397;-69
2023/10/30 11:51:44;;;;;;;1999.90;999.90;;;15.00;99.90;;;;;;5035797;28;20056;-69
2023/10/30 11:54:10;;;;;;;438.50;416.95;;;15.00;99.90;;;;;;5049659;28;20037;-69
2023/10/30 11:56:36;;;;;;;398.80;378.98;;;15.10;99.90;;;;;;5041487;28;20047;-69
2023/10/30 11:59:03;;;;;;;1999.90;999.90;;;15.00;99.90;;;;;;5047748;28;20487;-69
2023/10/30 12:01:33;;;;;;;841.50;574.30;;;15.00;99.90;;;;;;5034866;28;20099;-69